Portada
METAR-TAF:

METAR-TAF

Aeroports :

Mount Washington Regional Airport

Whitefield, Nova Hampshire, Estats Units d'Amèrica

latitud: 44-21-58N, longitud: 071-33-09W, altitud: 327 m

Observació

L'informe es va fer fa 56 minuts, a les 10:52 UTC
Vent calma
Temperatura 3°C
Humitat 100%
Pressió 1025 hPa
Visibilitat: 0.8 km
boira

METAR: KHIE 221052Z AUTO 00000KT 1/2SM FG VV001 03/03 A3027 RMK AO2 SLP256 T00330028

Hora: 07:48 (11:48 UTC)

Pronòstic

L'informe es va fer fa 26 minuts, a les 11:22 UTC
Pronòstic vàlid del 22 a les 12 UTC al 23 a les 12 UTC
Vent 4 kt del Oest/Nord-Oest
Visibilitat: 0.8 km
Escasses núvols a una alçada de 100 ft
boira
A partir de les 22 a les 1400 UTC
Vent 3 kt amb direcció variable
Visibilitat: 10 km
Escasses núvols a una alçada de 25000 ft
A partir de les 23 a les 0600 UTC
Vent 3 kt amb direcció variable
Visibilitat: 10 km
Cel ennuvolat a una alçada de 2100 ft

TAF: KHIE 221122Z 2212/2312 29004KT 1/2SM FG FEW001 FM221400 VRB03KT P6SM FEW250 FM230600 VRB03KT P6SM BKN021

Observacions i pronòstics meteorològics de més de 4000 aeroports (METAR i TAF).

Les estacions disponibles són els punts grocs i vermells al mapa.

Posi el ratolí al punt desitjat per veure el nom de l'estació.

Feu clic per veure les observacions i els pronòstics meteorològics.

Per canviar el mapa: feu clic els botons verds amb una creu de color negre per apropar; al botó verd amb un guió per allunyar la imatge; o en les fletxes verdes per a mapes adjacents.


METAR-TAF: